aviador You're here:

LFRI Decoded Metar

LA ROCHE-SUR-YON in FRANCE
Report Time2017-09-23 21:30:00
UTC Time2017-09-23 21:44:57
Flight Rules vfr VFR
Wind060° at 01 kt
W.Decomp.*RWY 10: 0.8 kt HW 0.6 kt LCW
W.Rank060° ranks 18
Current wind is below 060° avg. (6.8)
Visibility9999 m
Phenomena:N/A
Clouds:N/A
Expected CloudBase > 800 ft AGL from Temp-Dew spread
CeilingNone
Temp14°C (ISA -0)
Dew Point12°C (88% RH)
QNH1018 hPa
Density Alt272 ft
Elevation299 ft
Report Wrong Elevation
Raw Report
METAR LFRI 232130Z AUTO 06001KT CAVOK 14/12 Q1018=

Extra information for LFRI:More info

Metar Taf Metar & Taf Last 4 Metars F.Rules Stats Wind Profile Meteogram Temp Stats Airport Information Weather charts Add Link Nearby VenuesMetar ALERT Operation Metar Decoded Social comments